Etusivu
METAR-TAF:

METAR-TAF

Lentoasemat :

Gilmer Municipal Airport (Fox Stephens Field)

Gilmer, Texas, Yhdysvallat

Leveyspiiri: 32-41-56N, Pituuspiiri: 094-56-55W, korkeus merenpinnasta: 127 m

Tämänhetkinen sää

Tämä raportti tehtiin 30 minuuttia sitten, kello 10.55 UTC
tyyntä
Lämpötila 3°C
Kosteus 93%
Ilmanpaine 1015 hPa
Näkyvyys: 16.1 km
selkeää

METAR: KJXI 181055Z AUTO 00000KT 10SM CLR 03/02 A2997 RMK AO2 T00300023

Aika: 05:25 (11:25 UTC)


TAF: puuttuu

Säähavainnot ja -ennusteet yli 4000 lentoasemalta (METAR- ja TAF-raportit).

Käytössä olevat sääasemat on merkitty karttaan keltaisilla ja punaisilla pisteillä.

Aseta hiiri pisteen päälle nähdäksesi sääaseman nimen.

Klikkaa sitten nähdäksesi säähavainnot ja -ennusteet.

Kartan vaihtaminen: klikkaa mustalla rastilla varustettuja vihreitä pisteitä, niin voit zoomata sisään; viivalla varustettua vihreää pistettä, niin voit zoomata ulos tai vihreitä nuolia, niin pääset viereisille kartoille.


METAR-TAF: